Airfield :
LOGIN :

Register | Disclaimer

   EN    FR    IT 

 










Legend :    VFR   Marginal VFR   IFR   Intensive IFR   Very Intensive IFR
Visi :
Ceiling :
>= 8 km
>= 3000ft
5 to 8 km
1000 to 3000 ft
1500m to 5 km
500 to 1000 ft
800 to 1500m
200 to 500 ft
< 800m
< 200 ft
Symbols :   Thunderstorms  Fog  Heavy snow  Heavy precipitations  Wind > 20 kt
SIGMETs :     Misc.  Thunderstorms  Icing  Turbulence  Mountain Waves  Volcanic Ashes







- Airport Elevation : 1989 ft
- IATA code : KLV


LKKV - Karlovy Vary

CURRENT METAR :
  • 191130Z 12007KT CAVOK M01/M06 Q1018

EXPIRED METARs :
  • 191100Z 10007KT CAVOK M01/M06 Q1018
  • 191030Z 11007KT 9999 FEW021 M02/M06 Q1019
  • 191000Z 10008KT 070V130 9999 FEW020 M02/M06 Q1019
  • 190930Z 10009KT 9999 SCT017 M02/M06 Q1019
  • 190900Z 10008KT 9999 SCT017 M03/M06 Q1019
  • 190830Z 11005KT 9999 BKN015 M03/M06 Q1020

TAF TAF LKKV
Valid from the 19 at 12:00 until the 20 at 18:00 UTC


191100Z 1912/2018 06005KT 9999 BKN020
TEMPO 1912/1919 CAVOK
TEMPO 2010/2017 6000 -SN SCT008 BKN013
No reported NOTAMs for that airfield.



MET'MAP, your aeronautical weather chart ! - Copyright ORBIFLY December 2007 - Disclaimer

ORBIFLY MET'MAP TEAM :

Programming & Development : Alexandra Zaïnal
Concept & Development : Baudouin d'Aumeries
Co-Development & Prog : Marc-Olivier Méhu
Technical & hardware support : Manuel Goepfert

Contact : metmap@orbifly.com




SOURCES & CREDITS :

   NOAA